Michigan City, MS (38647)

9:01 AM CDT on August 30, 2014 (GMT -0500)
Oak Hill Downs | Change Station
CLOSE
Current Station
Personal Weather Station
Location: Moscow, TN
Elevation: 443 ft
Nearby Weather Stations

Elev 443 ft 35.10 °N, 89.43 °W | Updated 9 minutes ago

Overcast
Overcast
71.2 °F
Feels Like 71.2 °F
N
0.0
Wind Variable Wind from ENE
Gusts 0.0 mph

Today
High -- | Low -- °F
--% Chance of Precip.
Yesterday
High -- | Low -- °F
Precip. -- in
6:28 AM 7:26 PM
Waxing Crescent, 22% visible
Pressure 30.06 in
Visibility 5.0 miles
Clouds Overcast 1400 ft
Dew Point 69 °F
Humidity 93%
Rainfall 0.87 in
Snow Depth Not available.
UV 1 out of 12
Pollen 3.20 out of 12
Air Quality Not available.
Flu Activity Not available.
METAR KOLV 301350Z 11005KT 5SM BR OVC014 23/23 A3006

More Conditions Fewer Conditions

Pressure 30.06 in
Visibility 5.0 miles
Clouds Overcast 1400 ft
Dew Point 69 °F
Humidity 93%
Rainfall 0.87 in
Snow Depth Not available.
UV 1 out of 12
Pollen 3.20 out of 12
Air Quality Not available.
Flu Activity Not available.
METAR KOLV 301350Z 11005KT 5SM BR OVC014 23/23 A3006

More Conditions Fewer Conditions

10-Day Weather Forecast

Almanac

Astronomy

Aug. 30, 2014 Rise Set
Actual Time 6:28 AM CDT 7:26 PM CDT
Civil Twilight 6:02 AM CDT 7:52 PM CDT
Nautical Twilight 5:31 AM CDT 8:22 PM CDT
Astronomical Twilight 4:59 AM CDT 8:54 PM CDT
Moon 11:03 AM CDT 10:13 PM CDT
Length of Visible Light 13h 49m
Length of Day
12h 58m
Tomorrow will be 2m 6s shorter.
Waxing Crescent, 22% of the Moon is Illuminated
Today
Waxing Crescent
Sep 2
First Quarter
Sep 8
Full
Sep 15
Last Quarter
Sep 24
New

Today's Extremes

State Highs State Lows

Community

WunderPhotos

Upload Photos

1,748,514 photos uploaded!

WunderBlogs® & News

By Dr. Jeff Masters
Director of Meteorology, Weather Underground
By Kari Strenfel
Meteorologist, Weather Underground
By Christopher C. Burt
Weather Historian, Weather Underground
August 30, 2014
August 30, 2014
August 30, 2014

Nearby

Snow Depth

Station Depth Elevation
No new snow has been reported.

Earthquake Activity

City Distance Mag. Time & Date
No recent earthquake activity has been reported nearby.
Minimum magnitude displayed is 2.5.

Coastal Water Temperatures

Place Temperature
No Stations Reporting

Nearby Weather Stations